TAF and METAR

Could not understand the following METAR

YBHI 141500Z AUTO 23009KT 9999 // BKN007 OVC013 13/11 Q1002
No TAF available for Broken Hill Airport
Broken Hill Airport in Australia at 292m

Latest 5 airports